Back to Top

Language: 

My Weather Underground Personal Weather Station Historical Data with Graphs...

Delerius Weather Station Historical Data
Daily Summary for March 22, 2017 Units:  English    Metric   Both
« Previous Day
Next Day »
Daily Weekly Monthly Yearly Custom
  High: Low: Average:
Temperature: 43.2 °F 35.4 °F 40.3 °F
Dew Point: 39.6 °F 34.1 °F 37.9 °F
Humidity: 96 % 84 % 91 %
Wind Speed: 10.0 mph 0.0 mph 5.2 mph
Wind Gust: 19.0 mph - -
Wind:- - ESE
Pressure: 29.91 in 29.60 in -
Precipitation: 0.19 in    
Historical Graphs
 
 
Tabular Data for March 22, 2017
Time Temperature Dew Point Pressure Wind Wind Speed Wind Gust Humidity Rainfall Rate (Hourly) solar Conditions
00:04 40.3 °F 37.6 °F 29.68 in South 2.0 mph 6.0 mph 90 % 0.01 in 0 W/m2
00:09 40.3 °F 37.6 °F 29.68 in South 2.0 mph 6.0 mph 90 % 0.01 in 0 W/m2
00:14 40.1 °F 37.4 °F 29.68 in South 2.0 mph 6.0 mph 90 % 0.01 in 0 W/m2
00:19 40.1 °F 37.7 °F 29.68 in SSE 3.0 mph 7.0 mph 91 % 0.01 in 0 W/m2
00:24 39.9 °F 37.5 °F 29.68 in SSE 2.0 mph 7.0 mph 91 % 0.01 in 0 W/m2
00:29 40.1 °F 37.7 °F 29.68 in SSE 2.0 mph 6.0 mph 91 % 0.01 in 0 W/m2
00:34 40.1 °F 37.7 °F 29.67 in SE 4.0 mph 8.0 mph 91 % 0.01 in 0 W/m2
00:39 40.1 °F 37.7 °F 29.67 in SE 5.0 mph 8.0 mph 91 % 0.01 in 0 W/m2
00:44 40.3 °F 38.1 °F 29.67 in SSE 4.0 mph 8.0 mph 92 % 0.01 in 0 W/m2
00:49 40.3 °F 38.1 °F 29.67 in SE 3.0 mph 6.0 mph 92 % 0.00 in 0 W/m2
00:54 40.3 °F 38.1 °F 29.67 in SE 4.0 mph 8.0 mph 92 % 0.00 in 0 W/m2
00:59 40.1 °F 38.0 °F 29.66 in ESE 4.0 mph 8.0 mph 92 % 0.00 in 0 W/m2
01:04 40.1 °F 38.0 °F 29.66 in ESE 5.0 mph 8.0 mph 92 % 0.00 in 0 W/m2
01:09 40.1 °F 38.0 °F 29.66 in ESE 4.0 mph 8.0 mph 92 % 0.00 in 0 W/m2
01:14 40.1 °F 38.0 °F 29.66 in ESE 4.0 mph 7.0 mph 92 % 0.01 in 0 W/m2
01:19 40.1 °F 38.0 °F 29.66 in ESE 4.0 mph 7.0 mph 92 % 0.01 in 0 W/m2
01:24 39.9 °F 38.1 °F 29.66 in ESE 4.0 mph 8.0 mph 93 % 0.01 in 0 W/m2
01:29 40.1 °F 38.2 °F 29.66 in ESE 3.0 mph 8.0 mph 93 % 0.01 in 0 W/m2
01:34 40.1 °F 38.2 °F 29.66 in ESE 3.0 mph 7.0 mph 93 % 0.01 in 0 W/m2
01:40 40.1 °F 38.2 °F 29.66 in East 3.0 mph 7.0 mph 93 % 0.01 in 0 W/m2
01:45 40.1 °F 38.2 °F 29.66 in East 4.0 mph 7.0 mph 93 % 0.01 in 0 W/m2
01:50 40.1 °F 38.2 °F 29.65 in East 4.0 mph 8.0 mph 93 % 0.01 in 0 W/m2
01:55 40.1 °F 38.2 °F 29.65 in East 4.0 mph 8.0 mph 93 % 0.01 in 0 W/m2
02:00 40.3 °F 38.4 °F 29.65 in East 4.0 mph 8.0 mph 93 % 0.02 in 0 W/m2
02:05 40.1 °F 38.5 °F 29.65 in East 3.0 mph 7.0 mph 94 % 0.02 in 0 W/m2
02:10 40.1 °F 38.5 °F 29.65 in East 3.0 mph 7.0 mph 94 % 0.01 in 0 W/m2
02:15 40.1 °F 38.5 °F 29.64 in East 4.0 mph 8.0 mph 94 % 0.01 in 0 W/m2
02:20 39.9 °F 38.3 °F 29.64 in East 5.0 mph 8.0 mph 94 % 0.01 in 0 W/m2
02:25 39.9 °F 38.3 °F 29.63 in East 5.0 mph 9.0 mph 94 % 0.01 in 0 W/m2
02:30 39.9 °F 38.3 °F 29.63 in East 5.0 mph 9.0 mph 94 % 0.01 in 0 W/m2
02:35 39.9 °F 38.3 °F 29.63 in East 5.0 mph 9.0 mph 94 % 0.01 in 0 W/m2
02:40 39.9 °F 38.3 °F 29.63 in East 5.0 mph 9.0 mph 94 % 0.01 in 0 W/m2
02:45 39.9 °F 38.3 °F 29.62 in ESE 5.0 mph 10.0 mph 94 % 0.01 in 0 W/m2
02:50 39.7 °F 38.2 °F 29.62 in ESE 5.0 mph 10.0 mph 94 % 0.01 in 0 W/m2
02:55 39.7 °F 38.2 °F 29.63 in ESE 6.0 mph 12.0 mph 94 % 0.01 in 0 W/m2
03:00 39.7 °F 38.2 °F 29.63 in ESE 7.0 mph 12.0 mph 94 % 0.00 in 0 W/m2
03:05 39.7 °F 38.2 °F 29.63 in ESE 7.0 mph 11.0 mph 94 % 0.00 in 0 W/m2
03:10 39.7 °F 38.2 °F 29.63 in ESE 6.0 mph 9.0 mph 94 % 0.00 in 0 W/m2
03:15 39.7 °F 38.2 °F 29.64 in ESE 5.0 mph 8.0 mph 94 % 0.00 in 0 W/m2
03:20 39.7 °F 38.2 °F 29.63 in ESE 4.0 mph 8.0 mph 94 % 0.00 in 0 W/m2
03:25 39.7 °F 38.2 °F 29.63 in East 4.0 mph 8.0 mph 94 % 0.00 in 0 W/m2
03:30 39.7 °F 38.2 °F 29.63 in East 4.0 mph 8.0 mph 94 % 0.00 in 0 W/m2
03:35 39.7 °F 38.2 °F 29.63 in ESE 5.0 mph 8.0 mph 94 % 0.00 in 0 W/m2
03:40 39.7 °F 38.2 °F 29.62 in East 5.0 mph 8.0 mph 94 % 0.00 in 0 W/m2
03:45 39.9 °F 38.3 °F 29.62 in East 5.0 mph 10.0 mph 94 % 0.00 in 0 W/m2
03:50 39.9 °F 38.3 °F 29.62 in East 5.0 mph 11.0 mph 94 % 0.00 in 0 W/m2
03:55 39.9 °F 38.3 °F 29.62 in ESE 6.0 mph 11.0 mph 94 % 0.00 in 0 W/m2
04:00 39.9 °F 38.3 °F 29.62 in ESE 6.0 mph 10.0 mph 94 % 0.00 in 0 W/m2
04:05 39.9 °F 38.3 °F 29.62 in ESE 7.0 mph 12.0 mph 94 % 0.00 in 0 W/m2
04:10 39.9 °F 38.1 °F 29.61 in ESE 7.0 mph 13.0 mph 93 % 0.00 in 0 W/m2
04:15 40.1 °F 38.2 °F 29.61 in ESE 7.0 mph 13.0 mph 93 % 0.00 in 0 W/m2
04:21 40.3 °F 38.4 °F 29.61 in ESE 7.0 mph 12.0 mph 93 % 0.00 in 0 W/m2
04:26 40.3 °F 38.4 °F 29.61 in ESE 7.0 mph 12.0 mph 93 % 0.00 in 0 W/m2
04:31 40.3 °F 38.1 °F 29.61 in ESE 7.0 mph 11.0 mph 92 % 0.00 in 0 W/m2
04:36 40.3 °F 38.1 °F 29.61 in ESE 7.0 mph 11.0 mph 92 % 0.00 in 0 W/m2
04:41 40.1 °F 38.0 °F 29.61 in ESE 7.0 mph 11.0 mph 92 % 0.00 in 0 W/m2
04:46 40.3 °F 38.1 °F 29.61 in ESE 7.0 mph 11.0 mph 92 % 0.00 in 0 W/m2
04:51 40.3 °F 38.1 °F 29.61 in ESE 6.0 mph 11.0 mph 92 % 0.00 in 0 W/m2
04:56 40.3 °F 37.9 °F 29.61 in ESE 6.0 mph 14.0 mph 91 % 0.00 in 0 W/m2
05:01 40.3 °F 37.9 °F 29.61 in ESE 7.0 mph 14.0 mph 91 % 0.00 in 0 W/m2
05:06 40.3 °F 37.9 °F 29.61 in ESE 6.0 mph 12.0 mph 91 % 0.00 in 0 W/m2
05:11 40.3 °F 37.9 °F 29.61 in ESE 7.0 mph 15.0 mph 91 % 0.00 in 0 W/m2
05:16 40.3 °F 37.6 °F 29.61 in ESE 8.0 mph 15.0 mph 90 % 0.00 in 0 W/m2
05:21 40.3 °F 37.6 °F 29.61 in ESE 7.0 mph 12.0 mph 90 % 0.00 in 0 W/m2
05:26 40.3 °F 37.6 °F 29.61 in ESE 8.0 mph 14.0 mph 90 % 0.00 in 0 W/m2
05:31 40.3 °F 37.6 °F 29.61 in SE 8.0 mph 14.0 mph 90 % 0.00 in 0 W/m2
05:36 40.5 °F 37.8 °F 29.61 in SE 8.0 mph 15.0 mph 90 % 0.00 in 0 W/m2
05:41 40.5 °F 37.8 °F 29.61 in SE 8.0 mph 15.0 mph 90 % 0.00 in 0 W/m2
05:46 40.5 °F 37.8 °F 29.61 in SE 8.0 mph 13.0 mph 90 % 0.00 in 0 W/m2
05:51 40.5 °F 37.8 °F 29.61 in SE 9.0 mph 16.0 mph 90 % 0.00 in 0 W/m2
05:56 40.5 °F 37.5 °F 29.60 in SE 8.0 mph 16.0 mph 89 % 0.00 in 0 W/m2
06:01 40.6 °F 37.7 °F 29.61 in SE 8.0 mph 14.0 mph 89 % 0.00 in 0 W/m2
06:06 40.6 °F 37.7 °F 29.61 in SE 8.0 mph 14.0 mph 89 % 0.00 in 0 W/m2
06:11 40.6 °F 37.7 °F 29.61 in SE 7.0 mph 13.0 mph 89 % 0.00 in 0 W/m2
06:16 40.6 °F 37.7 °F 29.61 in SE 7.0 mph 13.0 mph 89 % 0.00 in 5 W/m2
06:21 40.6 °F 37.7 °F 29.61 in SE 7.0 mph 13.0 mph 89 % 0.00 in 5 W/m2
06:26 40.6 °F 37.7 °F 29.61 in SE 7.0 mph 13.0 mph 89 % 0.00 in 7 W/m2
06:31 40.6 °F 37.7 °F 29.61 in SE 8.0 mph 14.0 mph 89 % 0.00 in 11 W/m2
06:36 40.6 °F 37.7 °F 29.61 in SE 7.0 mph 14.0 mph 89 % 0.00 in 12 W/m2
06:41 40.8 °F 37.8 °F 29.61 in SE 7.0 mph 12.0 mph 89 % 0.00 in 16 W/m2
06:46 40.8 °F 37.5 °F 29.61 in SE 7.0 mph 13.0 mph 88 % 0.00 in 18 W/m2
06:51 40.8 °F 37.5 °F 29.61 in SE 8.0 mph 13.0 mph 88 % 0.00 in 19 W/m2
06:56 41.0 °F 37.7 °F 29.62 in SE 8.0 mph 13.0 mph 88 % 0.00 in 16 W/m2
07:01 41.0 °F 37.7 °F 29.62 in ESE 7.0 mph 14.0 mph 88 % 0.00 in 21 W/m2
07:06 41.0 °F 37.7 °F 29.62 in SE 8.0 mph 15.0 mph 88 % 0.00 in 25 W/m2
07:11 41.2 °F 37.9 °F 29.62 in SE 8.0 mph 15.0 mph 88 % 0.00 in 23 W/m2
07:16 41.2 °F 37.9 °F 29.62 in SE 8.0 mph 13.0 mph 88 % 0.00 in 33 W/m2
07:21 41.2 °F 37.9 °F 29.62 in SE 8.0 mph 13.0 mph 88 % 0.00 in 47 W/m2
07:26 41.4 °F 38.1 °F 29.62 in SE 8.0 mph 13.0 mph 88 % 0.00 in 53 W/m2
07:31 41.4 °F 38.1 °F 29.62 in SE 8.0 mph 13.0 mph 88 % 0.00 in 51 W/m2
07:36 41.5 °F 38.0 °F 29.62 in SE 8.0 mph 15.0 mph 87 % 0.00 in 58 W/m2
07:41 41.5 °F 38.0 °F 29.62 in SE 10.0 mph 15.0 mph 87 % 0.00 in 58 W/m2
07:46 41.7 °F 38.1 °F 29.62 in SE 9.0 mph 14.0 mph 87 % 0.00 in 60 W/m2
07:51 41.7 °F 38.1 °F 29.62 in SE 9.0 mph 14.0 mph 87 % 0.00 in 65 W/m2
07:56 41.7 °F 38.1 °F 29.62 in SE 8.0 mph 13.0 mph 87 % 0.00 in 56 W/m2
08:01 41.9 °F 38.0 °F 29.63 in SE 10.0 mph 16.0 mph 86 % 0.00 in 54 W/m2
08:06 42.1 °F 38.2 °F 29.63 in ESE 10.0 mph 16.0 mph 86 % 0.00 in 70 W/m2
08:11 42.1 °F 38.2 °F 29.63 in SE 8.0 mph 15.0 mph 86 % 0.00 in 69 W/m2
08:16 42.1 °F 38.2 °F 29.63 in SE 8.0 mph 14.0 mph 86 % 0.00 in 74 W/m2
08:21 42.3 °F 38.4 °F 29.63 in SE 9.0 mph 15.0 mph 86 % 0.00 in 90 W/m2
08:26 42.3 °F 38.4 °F 29.63 in SE 9.0 mph 15.0 mph 86 % 0.00 in 121 W/m2
08:31 42.4 °F 38.5 °F 29.63 in SE 9.0 mph 14.0 mph 86 % 0.00 in 142 W/m2
08:36 42.6 °F 38.4 °F 29.63 in SE 9.0 mph 16.0 mph 85 % 0.00 in 171 W/m2
08:41 43.0 °F 38.8 °F 29.63 in SE 9.0 mph 16.0 mph 85 % 0.00 in 121 W/m2
08:46 43.2 °F 38.7 °F 29.63 in SE 10.0 mph 19.0 mph 84 % 0.00 in 67 W/m2
08:51 43.2 °F 38.7 °F 29.63 in SE 10.0 mph 19.0 mph 84 % 0.00 in 67 W/m2
08:56 43.2 °F 38.7 °F 29.63 in SE 10.0 mph 18.0 mph 84 % 0.00 in 62 W/m2
09:01 43.0 °F 38.5 °F 29.64 in SE 9.0 mph 15.0 mph 84 % 0.00 in 35 W/m2
09:07 43.0 °F 38.5 °F 29.64 in SE 9.0 mph 14.0 mph 84 % 0.00 in 56 W/m2
09:12 43.0 °F 38.8 °F 29.64 in SE 9.0 mph 15.0 mph 85 % 0.00 in 60 W/m2
09:17 43.0 °F 38.8 °F 29.64 in SE 9.0 mph 15.0 mph 85 % 0.00 in 84 W/m2
09:22 43.0 °F 38.8 °F 29.64 in SE 8.0 mph 15.0 mph 85 % 0.00 in 105 W/m2
09:27 43.2 °F 39.3 °F 29.64 in ESE 6.0 mph 15.0 mph 86 % 0.00 in 77 W/m2
09:32 43.2 °F 39.3 °F 29.64 in ESE 6.0 mph 10.0 mph 86 % 0.00 in 60 W/m2
09:37 43.0 °F 39.1 °F 29.64 in ESE 6.0 mph 11.0 mph 86 % 0.00 in 77 W/m2
09:42 43.0 °F 39.1 °F 29.64 in ESE 8.0 mph 15.0 mph 86 % 0.00 in 79 W/m2
09:47 43.0 °F 39.4 °F 29.64 in ESE 9.0 mph 15.0 mph 87 % 0.00 in 51 W/m2
09:52 42.8 °F 39.2 °F 29.65 in ESE 9.0 mph 18.0 mph 87 % 0.01 in 25 W/m2
09:57 42.4 °F 39.1 °F 29.64 in ESE 9.0 mph 18.0 mph 88 % 0.02 in 26 W/m2
10:02 42.1 °F 38.8 °F 29.64 in ESE 9.0 mph 18.0 mph 88 % 0.03 in 32 W/m2
10:07 41.7 °F 38.7 °F 29.64 in ESE 9.0 mph 15.0 mph 89 % 0.04 in 62 W/m2
10:12 41.7 °F 39.0 °F 29.64 in ESE 8.0 mph 13.0 mph 90 % 0.06 in 77 W/m2
10:17 41.7 °F 39.3 °F 29.64 in ESE 8.0 mph 14.0 mph 91 % 0.06 in 60 W/m2
10:22 41.7 °F 39.3 °F 29.64 in ESE 8.0 mph 14.0 mph 91 % 0.06 in 81 W/m2
10:27 41.7 °F 39.6 °F 29.64 in ESE 8.0 mph 13.0 mph 92 % 0.06 in 105 W/m2
10:32 41.7 °F 39.6 °F 29.64 in ESE 7.0 mph 13.0 mph 92 % 0.07 in 77 W/m2
10:37 41.7 °F 39.6 °F 29.64 in ESE 7.0 mph 12.0 mph 92 % 0.07 in 56 W/m2
20:45 40.8 °F 39.5 °F 29.83 in ESE 2.0 mph 7.0 mph 95 % 0.00 in 0 W/m2
20:46 40.8 °F 39.5 °F 29.83 in ESE 2.0 mph 7.0 mph 95 % 0.00 in 0 W/m2
20:47 40.8 °F 39.5 °F 29.83 in ESE 3.0 mph 7.0 mph 95 % 0.00 in 0 W/m2
20:48 40.8 °F 39.5 °F 29.83 in ESE 3.0 mph 7.0 mph 95 % 0.00 in 0 W/m2
20:53 40.8 °F 39.5 °F 29.83 in SE 3.0 mph 7.0 mph 95 % 0.00 in 0 W/m2
20:58 40.8 °F 39.5 °F 29.83 in SE 2.0 mph 5.0 mph 95 % 0.00 in 0 W/m2
21:04 40.6 °F 39.0 °F 29.84 in ESE 2.0 mph 6.0 mph 94 % 0.00 in 0 W/m2
21:09 40.5 °F 38.9 °F 29.84 in ESE 2.0 mph 6.0 mph 94 % 0.00 in 0 W/m2
21:15 40.3 °F 39.0 °F 29.85 in SE 2.0 mph 6.0 mph 95 % 0.00 in 0 W/m2
21:19 40.3 °F 39.0 °F 29.85 in SE 2.0 mph 5.0 mph 95 % 0.00 in 0 W/m2
21:24 40.1 °F 38.8 °F 29.85 in SE 2.0 mph 5.0 mph 95 % 0.00 in 0 W/m2
21:29 39.9 °F 38.6 °F 29.85 in SE 2.0 mph 6.0 mph 95 % 0.00 in 0 W/m2
21:35 39.9 °F 38.6 °F 29.86 in SE 2.0 mph 6.0 mph 95 % 0.00 in 0 W/m2
21:40 39.7 °F 38.4 °F 29.86 in SE 2.0 mph 6.0 mph 95 % 0.00 in 0 W/m2
21:45 39.6 °F 38.2 °F 29.87 in SE 2.0 mph 5.0 mph 95 % 0.00 in 0 W/m2
21:50 39.4 °F 38.1 °F 29.87 in SE 2.0 mph 5.0 mph 95 % 0.00 in 0 W/m2
21:55 39.4 °F 38.1 °F 29.87 in SE 2.0 mph 7.0 mph 95 % 0.00 in 0 W/m2
22:00 39.4 °F 38.1 °F 29.87 in SSE 3.0 mph 7.0 mph 95 % 0.00 in 0 W/m2
22:05 39.2 °F 37.9 °F 29.87 in SSE 2.0 mph 6.0 mph 95 % 0.00 in 0 W/m2
22:10 39.0 °F 37.7 °F 29.87 in SSE 1.0 mph 5.0 mph 95 % 0.00 in 0 W/m2
22:16 38.8 °F 37.5 °F 29.88 in Calm   3.0 mph 95 % 0.00 in 0 W/m2
22:21 38.5 °F 37.2 °F 29.88 in Calm   2.0 mph 95 % 0.00 in 0 W/m2
22:26 38.1 °F 36.8 °F 29.88 in Calm     95 % 0.00 in 0 W/m2
22:31 37.9 °F 36.6 °F 29.88 in Calm     95 % 0.00 in 0 W/m2
22:36 37.8 °F 36.5 °F 29.88 in Calm     95 % 0.00 in 0 W/m2
22:41 37.6 °F 36.3 °F 29.88 in Calm     95 % 0.00 in 0 W/m2
22:46 37.4 °F 36.1 °F 29.89 in Calm     95 % 0.00 in 0 W/m2
22:51 37.2 °F 35.9 °F 29.89 in Calm     95 % 0.00 in 0 W/m2
22:56 37.2 °F 35.9 °F 29.89 in Calm     95 % 0.00 in 0 W/m2
23:01 37.0 °F 35.7 °F 29.89 in Calm     95 % 0.00 in 0 W/m2
23:06 36.9 °F 35.6 °F 29.89 in Calm     95 % 0.00 in 0 W/m2
23:11 36.7 °F 35.4 °F 29.89 in Calm     95 % 0.00 in 0 W/m2
23:16 36.3 °F 35.0 °F 29.89 in Calm     95 % 0.00 in 0 W/m2
23:21 36.1 °F 34.8 °F 29.90 in Calm   1.0 mph 95 % 0.00 in 0 W/m2
23:26 36.0 °F 34.7 °F 29.90 in Calm   1.0 mph 95 % 0.00 in 0 W/m2
23:31 35.8 °F 34.5 °F 29.90 in Calm     95 % 0.00 in 0 W/m2
23:36 35.4 °F 34.1 °F 29.90 in Calm   2.0 mph 95 % 0.00 in 0 W/m2
23:41 35.4 °F 34.4 °F 29.90 in WNW 1.0 mph 2.0 mph 96 % 0.00 in 0 W/m2
23:47 35.6 °F 34.6 °F 29.91 in Calm   2.0 mph 96 % 0.00 in 0 W/m2
23:52 35.6 °F 34.6 °F 29.91 in Calm   1.0 mph 96 % 0.00 in 0 W/m2
23:57 35.6 °F 34.6 °F 29.91 in Calm     96 % 0.00 in 0 W/m2
Delerius-Weather
Compliments of Weather Underground - 1.5 mb

Data updates at regular intervals.